Melk, Austria
Current Conditions -  °F | °C
As of 4:20 PM on Saturday 20 Dec 2014 (Local Time) from LOWL Reporting Station
Broken Clouds Broken Clouds  
Wind Chill: 36°   Ceiling: 5000
Heat Index: 45°   Visibility: 6mi
Dew Point: 36°   Wind: 21mph
Humidity: 71%   Direction: 300°WNW
Pressure: 30.12"   Gusts: NA
Location:  48.22°N, 15.32°E
Report Text: LOWL 201420Z 30018KT 9999 FEW018 BKN050 07/02 Q1020 NOSIG
Loading
Personal Weather Stations






























Interactive Weather Map New forecast layout! Learn more

10-Day Weather Forecast

Advertisements
Track Severe Weather on mobile